createdAt,value
2023-10-07T00:01:47.119Z,61.69
2023-10-07T00:04:49.892Z,61.81
2023-10-07T00:07:53.230Z,61.92
2023-10-07T00:11:00.177Z,61.74
2023-10-07T00:14:04.149Z,61.61
2023-10-07T00:17:13.200Z,61.72
2023-10-07T00:20:22.043Z,61.74
2023-10-07T00:23:29.740Z,61.77
2023-10-07T00:26:33.006Z,61.48
2023-10-07T00:29:54.088Z,61.67
2023-10-07T00:32:57.227Z,61.73
2023-10-07T00:36:06.475Z,61.83
2023-10-07T00:39:10.749Z,62.11
2023-10-07T00:42:14.370Z,62.06
2023-10-07T00:45:17.865Z,61.78
2023-10-07T00:48:23.129Z,62.06
2023-10-07T00:51:34.954Z,62.09
2023-10-07T00:54:49.903Z,61.99
2023-10-07T00:57:55.890Z,62.18
2023-10-07T01:00:58.720Z,62.00
2023-10-07T01:04:03.520Z,62.42
2023-10-07T01:07:06.305Z,62.60
2023-10-07T01:10:10.490Z,62.60
2023-10-07T01:13:30.899Z,62.76
2023-10-07T01:16:34.817Z,62.57
2023-10-07T01:19:44.745Z,62.70
2023-10-07T01:23:17.018Z,62.56
2023-10-07T01:26:30.023Z,62.78
2023-10-07T01:29:34.322Z,62.82
2023-10-07T01:32:44.525Z,62.93
2023-10-07T01:36:06.058Z,62.82
2023-10-07T01:39:09.030Z,62.76
2023-10-07T01:42:24.384Z,62.92
2023-10-07T01:45:36.161Z,62.87
2023-10-07T01:48:39.254Z,62.92
2023-10-07T01:51:45.890Z,63.08
2023-10-07T01:54:49.585Z,63.09
2023-10-07T01:57:52.446Z,63.13
2023-10-07T02:00:58.790Z,63.02
2023-10-07T02:04:08.125Z,63.05
2023-10-07T02:07:11.139Z,63.19
2023-10-07T02:10:14.785Z,63.49
2023-10-07T02:13:20.871Z,63.58
2023-10-07T02:16:31.154Z,63.66
2023-10-07T02:19:34.327Z,63.62
2023-10-07T02:22:39.919Z,63.60
2023-10-07T02:25:43.896Z,64.06
2023-10-07T02:28:52.690Z,64.21
2023-10-07T02:32:07.464Z,64.51
2023-10-07T02:35:11.124Z,64.38
2023-10-07T02:38:14.471Z,64.20
2023-10-07T02:41:18.683Z,64.54
2023-10-07T02:44:29.377Z,64.94
2023-10-07T02:47:33.950Z,65.07
2023-10-07T02:50:40.990Z,65.00
2023-10-07T02:53:43.773Z,64.83
2023-10-07T02:57:16.968Z,65.24
2023-10-07T03:00:31.070Z,65.47
2023-10-07T03:03:34.636Z,65.40
2023-10-07T03:06:38.537Z,65.26
2023-10-07T03:09:48.396Z,65.61
2023-10-07T03:12:58.710Z,65.56
2023-10-07T03:16:11.421Z,65.90
2023-10-07T03:19:24.213Z,65.94
2023-10-07T03:22:32.727Z,65.98
2023-10-07T03:25:54.694Z,65.89
2023-10-07T03:28:57.752Z,66.21
2023-10-07T03:32:09.336Z,66.24
2023-10-07T03:35:19.041Z,66.30
2023-10-07T03:38:21.938Z,66.23
2023-10-07T03:41:25.113Z,66.41
2023-10-07T03:44:29.454Z,66.12
2023-10-07T03:47:34.285Z,66.29
2023-10-07T03:50:37.213Z,66.09
2023-10-07T03:53:46.266Z,66.21
2023-10-07T03:56:50.844Z,66.11
2023-10-07T03:59:54.630Z,65.95
2023-10-07T04:03:03.289Z,65.90
2023-10-07T04:06:06.287Z,65.98
2023-10-07T04:09:10.014Z,66.13
2023-10-07T04:12:15.919Z,65.99
2023-10-07T04:15:19.786Z,65.92
2023-10-07T04:18:36.141Z,65.93
2023-10-07T04:21:41.113Z,66.13
2023-10-07T04:24:46.117Z,66.10
2023-10-07T04:27:54.931Z,66.08
2023-10-07T04:30:57.795Z,66.07
2023-10-07T04:34:03.954Z,65.99
2023-10-07T04:37:09.579Z,66.24
2023-10-07T04:40:32.619Z,66.23
2023-10-07T04:43:39.073Z,66.46
2023-10-07T04:46:46.742Z,66.40
2023-10-07T04:50:01.901Z,66.70
2023-10-07T04:53:06.782Z,66.59
2023-10-07T04:56:11.538Z,66.62
2023-10-07T04:59:14.933Z,66.69
2023-10-07T05:02:18.174Z,66.62
2023-10-07T05:05:21.453Z,66.61
2023-10-07T05:08:24.331Z,66.75
2023-10-07T05:11:28.020Z,66.76
2023-10-07T05:14:30.828Z,67.02
2023-10-07T05:17:38.003Z,66.73
2023-10-07T05:20:43.379Z,66.88
2023-10-07T05:23:47.573Z,66.86
2023-10-07T05:26:50.758Z,67.14
2023-10-07T05:29:53.558Z,67.05
2023-10-07T05:32:56.441Z,67.17
2023-10-07T05:36:00.227Z,66.95
2023-10-07T05:39:03.973Z,67.19
2023-10-07T05:42:07.554Z,67.30
2023-10-07T05:45:11.303Z,67.37
2023-10-07T05:48:14.115Z,67.20
2023-10-07T05:51:18.006Z,67.38
2023-10-07T05:54:36.452Z,67.42
2023-10-07T05:57:39.211Z,67.40
2023-10-07T06:00:42.379Z,67.44
2023-10-07T06:03:45.678Z,67.53
2023-10-07T06:06:48.532Z,67.57
2023-10-07T06:09:51.300Z,67.30
2023-10-07T06:12:56.931Z,67.45
2023-10-07T06:16:01.389Z,67.52
2023-10-07T06:19:04.337Z,67.61
2023-10-07T06:22:13.530Z,67.46
2023-10-07T06:25:19.566Z,67.63
2023-10-07T06:28:29.553Z,67.55
2023-10-07T06:31:35.761Z,67.49
2023-10-07T06:34:42.971Z,67.55
2023-10-07T06:37:46.011Z,67.58
2023-10-07T06:40:54.709Z,67.51
2023-10-07T06:44:10.573Z,67.61
2023-10-07T06:47:13.863Z,67.57
2023-10-07T06:50:25.256Z,67.54
2023-10-07T06:53:28.282Z,67.46
2023-10-07T06:56:31.047Z,67.47
2023-10-07T06:59:33.812Z,67.46
2023-10-07T07:02:37.234Z,67.21
2023-10-07T07:05:41.707Z,67.24
2023-10-07T07:08:45.940Z,67.24
2023-10-07T07:11:48.664Z,67.24
2023-10-07T07:14:53.125Z,67.44
2023-10-07T07:18:09.433Z,67.12
2023-10-07T07:21:33.199Z,67.21
2023-10-07T07:24:36.165Z,67.19
2023-10-07T07:27:49.658Z,67.29
2023-10-07T07:30:54.910Z,67.33
2023-10-07T07:34:07.697Z,67.37
2023-10-07T07:37:11.999Z,67.38
2023-10-07T07:40:37.333Z,67.33
2023-10-07T07:43:41.270Z,67.31
2023-10-07T07:46:56.577Z,67.17
2023-10-07T07:50:07.977Z,67.56
2023-10-07T07:53:11.191Z,67.94
2023-10-07T07:56:14.725Z,67.94
2023-10-07T07:59:19.564Z,67.80
2023-10-07T08:02:25.881Z,67.95
2023-10-07T08:05:30.131Z,67.95
2023-10-07T08:08:38.114Z,67.75
2023-10-07T08:11:41.796Z,67.82
2023-10-07T08:14:45.586Z,67.99
2023-10-07T08:17:52.243Z,68.12
2023-10-07T08:21:00.657Z,68.34
2023-10-07T08:24:03.922Z,68.62
2023-10-07T08:27:32.063Z,69.61
2023-10-07T08:30:41.374Z,70.34
2023-10-07T08:33:49.266Z,70.93
2023-10-07T08:36:52.335Z,70.90
2023-10-07T08:39:58.381Z,70.90
2023-10-07T08:43:01.968Z,71.17
2023-10-07T08:46:13.729Z,71.38
2023-10-07T08:49:18.318Z,71.58
2023-10-07T08:52:21.634Z,71.64
2023-10-07T08:55:25.222Z,71.51
2023-10-07T08:58:32.554Z,71.27
2023-10-07T09:01:36.808Z,71.49
2023-10-07T09:04:41.795Z,71.50
2023-10-07T09:07:49.974Z,71.34
2023-10-07T09:10:53.597Z,71.19
2023-10-07T09:13:57.184Z,70.78
2023-10-07T09:17:00.062Z,70.65
2023-10-07T09:20:03.847Z,70.50
2023-10-07T09:23:09.587Z,70.28
2023-10-07T09:26:17.889Z,70.06
2023-10-07T09:29:27.518Z,69.91
2023-10-07T09:32:33.684Z,69.50
2023-10-07T09:35:37.422Z,69.51
2023-10-07T09:38:44.947Z,69.31
2023-10-07T09:42:01.596Z,69.31
2023-10-07T09:45:05.670Z,69.35
2023-10-07T09:48:10.737Z,69.52
2023-10-07T09:51:24.411Z,69.36
2023-10-07T09:54:52.911Z,69.52
2023-10-07T09:58:08.115Z,69.69
2023-10-07T10:01:55.609Z,69.85
2023-10-07T10:05:29.482Z,69.86
2023-10-07T10:08:57.216Z,70.01
2023-10-07T10:12:28.642Z,70.22
2023-10-07T10:15:40.522Z,70.59
2023-10-07T10:18:52.459Z,70.47
2023-10-07T10:21:55.344Z,70.61
2023-10-07T10:25:15.918Z,70.35
2023-10-07T10:28:26.992Z,70.32
2023-10-07T10:31:35.927Z,70.41
2023-10-07T10:34:38.875Z,70.48
2023-10-07T10:37:42.456Z,70.60
2023-10-07T10:40:48.897Z,70.45
2023-10-07T10:43:51.845Z,70.65
2023-10-07T10:46:54.800Z,70.59
2023-10-07T10:49:58.222Z,70.64
2023-10-07T10:53:01.831Z,70.66
2023-10-07T10:56:05.051Z,70.63
2023-10-07T10:59:07.985Z,70.64
2023-10-07T11:02:19.038Z,70.53
2023-10-07T11:05:23.122Z,70.70
2023-10-07T11:08:27.462Z,70.70
2023-10-07T11:11:31.490Z,70.75
2023-10-07T11:14:37.273Z,70.81
2023-10-07T11:17:54.284Z,70.85
2023-10-07T11:20:57.043Z,71.15
2023-10-07T11:24:01.653Z,71.45
2023-10-07T11:27:04.716Z,72.16
2023-10-07T11:30:08.339Z,72.40
2023-10-07T11:33:12.680Z,73.20
2023-10-07T11:36:15.536Z,73.31
2023-10-07T11:39:18.335Z,73.67
2023-10-07T11:42:22.950Z,73.89
2023-10-07T11:45:27.980Z,74.04
2023-10-07T11:48:32.182Z,74.01
2023-10-07T11:51:35.032Z,74.34
2023-10-07T11:54:39.107Z,74.34
2023-10-07T11:57:41.943Z,74.56
2023-10-07T12:00:44.918Z,74.42
2023-10-07T12:03:48.285Z,74.30
2023-10-07T12:06:54.398Z,74.11
2023-10-07T12:09:57.222Z,74.15
2023-10-07T12:13:00.136Z,73.64
2023-10-07T12:16:05.819Z,73.65
2023-10-07T12:19:09.236Z,73.92
2023-10-07T12:22:14.712Z,74.02
2023-10-07T12:25:18.140Z,73.82
2023-10-07T12:28:21.458Z,74.12
2023-10-07T12:31:24.733Z,74.04
2023-10-07T12:34:28.306Z,73.95
2023-10-07T12:37:32.576Z,73.82
2023-10-07T12:40:35.588Z,73.89
2023-10-07T12:43:39.738Z,73.90
2023-10-07T12:46:44.882Z,73.83
2023-10-07T12:49:47.668Z,74.09
2023-10-07T12:52:53.331Z,74.02
2023-10-07T12:55:56.214Z,74.26
2023-10-07T12:58:58.998Z,74.48
2023-10-07T13:02:04.605Z,74.68
2023-10-07T13:05:10.814Z,74.57
2023-10-07T13:08:28.772Z,74.81
2023-10-07T13:11:31.715Z,74.84
2023-10-07T13:14:34.562Z,75.26
2023-10-07T13:17:37.584Z,75.44
2023-10-07T13:20:40.608Z,75.53
2023-10-07T13:23:47.176Z,75.53
2023-10-07T13:26:51.081Z,75.54
2023-10-07T13:29:54.256Z,75.89
2023-10-07T13:32:57.357Z,76.14
2023-10-07T13:36:02.403Z,76.28
2023-10-07T13:39:17.421Z,76.24
2023-10-07T13:42:20.470Z,76.65
2023-10-07T13:45:30.247Z,77.10
2023-10-07T13:48:33.510Z,77.10
2023-10-07T13:51:42.901Z,77.19
2023-10-07T13:55:11.194Z,77.08
2023-10-07T13:58:17.362Z,77.30
2023-10-07T14:01:21.813Z,77.34
2023-10-07T14:04:27.291Z,77.64
2023-10-07T14:07:31.226Z,77.49
2023-10-07T14:10:38.251Z,77.90
2023-10-07T14:13:48.220Z,78.14
2023-10-07T14:16:56.898Z,78.40
2023-10-07T14:19:59.839Z,78.67
2023-10-07T14:23:03.102Z,78.66
2023-10-07T14:26:10.756Z,78.72
2023-10-07T14:29:13.725Z,79.00
2023-10-07T14:32:16.643Z,78.98
2023-10-07T14:35:22.004Z,79.05
2023-10-07T14:38:24.903Z,78.74
2023-10-07T14:41:30.298Z,79.16
2023-10-07T14:44:34.041Z,79.69
2023-10-07T14:47:37.042Z,79.78
2023-10-07T14:50:41.508Z,79.87
2023-10-07T14:53:44.804Z,79.50
2023-10-07T14:56:47.731Z,79.64
2023-10-07T14:59:50.510Z,79.60
2023-10-07T15:02:53.559Z,79.55
2023-10-07T15:05:57.762Z,79.46
2023-10-07T15:09:00.866Z,79.56
2023-10-07T15:12:09.632Z,79.61
2023-10-07T15:15:15.603Z,79.59
2023-10-07T15:18:19.175Z,79.90
2023-10-07T15:21:25.218Z,79.86
2023-10-07T15:24:27.986Z,80.21
2023-10-07T15:27:33.002Z,80.27
2023-10-07T15:30:38.753Z,80.16
2023-10-07T15:34:08.743Z,80.37
2023-10-07T15:37:12.522Z,80.52
2023-10-07T15:40:16.146Z,80.39
2023-10-07T15:43:18.872Z,80.33
2023-10-07T15:46:21.877Z,79.92
2023-10-07T15:49:26.253Z,80.30
2023-10-07T15:52:29.171Z,80.17
2023-10-07T15:55:32.304Z,80.17
2023-10-07T15:58:35.428Z,79.96
2023-10-07T16:01:44.493Z,79.91
2023-10-07T16:04:48.117Z,79.60
2023-10-07T16:07:51.047Z,79.40
2023-10-07T16:10:53.982Z,79.25
2023-10-07T16:13:59.493Z,79.09
2023-10-07T16:17:02.555Z,78.98
2023-10-07T16:20:11.306Z,78.97
2023-10-07T16:23:15.308Z,78.85
2023-10-07T16:26:20.278Z,78.60
2023-10-07T16:29:23.058Z,78.44
2023-10-07T16:32:26.098Z,78.30
2023-10-07T16:35:29.319Z,78.15
2023-10-07T16:38:33.969Z,77.87
2023-10-07T16:41:36.981Z,77.99
2023-10-07T16:44:39.759Z,78.05
2023-10-07T16:47:43.080Z,78.34
2023-10-07T16:50:54.023Z,78.90
2023-10-07T16:53:57.456Z,79.54
2023-10-07T16:57:00.803Z,80.07
2023-10-07T17:00:06.082Z,80.33
2023-10-07T17:03:08.973Z,80.24
2023-10-07T17:06:12.118Z,80.70
2023-10-07T17:09:16.480Z,81.31
2023-10-07T17:12:20.173Z,81.76
2023-10-07T17:15:24.367Z,82.96
2023-10-07T17:18:28.110Z,83.47
2023-10-07T17:21:34.309Z,83.58
2023-10-07T17:24:40.825Z,83.47
2023-10-07T17:27:43.731Z,83.82
2023-10-07T17:30:49.387Z,83.83
2023-10-07T17:33:55.747Z,83.92
2023-10-07T17:37:00.181Z,83.70
2023-10-07T17:40:02.982Z,83.63
2023-10-07T17:43:09.891Z,83.24
2023-10-07T17:46:13.353Z,83.05
2023-10-07T17:49:16.101Z,82.82
2023-10-07T17:52:18.890Z,82.69
2023-10-07T17:55:21.739Z,82.39
2023-10-07T17:58:24.503Z,82.27
2023-10-07T18:01:28.673Z,82.23
2023-10-07T18:04:33.531Z,82.10
2023-10-07T18:07:36.612Z,82.23
2023-10-07T18:10:39.362Z,82.07
2023-10-07T18:13:42.136Z,81.98
2023-10-07T18:16:45.406Z,82.09
2023-10-07T18:19:51.143Z,81.93
2023-10-07T18:22:55.853Z,82.12
2023-10-07T18:26:01.329Z,82.07
2023-10-07T18:29:04.196Z,82.02
2023-10-07T18:32:08.363Z,81.97
2023-10-07T18:35:11.945Z,81.70
2023-10-07T18:38:14.984Z,81.94
2023-10-07T18:41:17.938Z,81.78
2023-10-07T18:44:20.926Z,81.71
2023-10-07T18:47:23.999Z,81.51
2023-10-07T18:50:27.004Z,81.66
2023-10-07T18:53:29.843Z,81.70
2023-10-07T18:56:32.836Z,81.70
2023-10-07T18:59:35.862Z,81.61
2023-10-07T19:02:41.992Z,81.81
2023-10-07T19:05:45.193Z,81.68
2023-10-07T19:08:49.238Z,81.83
2023-10-07T19:11:52.112Z,82.05
2023-10-07T19:14:54.877Z,81.91
2023-10-07T19:17:57.811Z,81.99
2023-10-07T19:21:03.689Z,82.10
2023-10-07T19:24:09.267Z,82.33
2023-10-07T19:27:11.990Z,82.38
2023-10-07T19:30:15.387Z,82.19
2023-10-07T19:33:18.619Z,82.06
2023-10-07T19:36:23.768Z,82.01
2023-10-07T19:39:41.953Z,81.91
2023-10-07T19:42:46.130Z,81.56
2023-10-07T19:45:48.783Z,81.42
2023-10-07T19:48:51.571Z,81.39
2023-10-07T19:51:54.390Z,81.07
2023-10-07T19:54:57.465Z,80.73
2023-10-07T19:58:00.537Z,80.49
2023-10-07T20:01:08.232Z,80.34
2023-10-07T20:04:11.290Z,80.20
2023-10-07T20:07:15.361Z,80.03
2023-10-07T20:10:18.868Z,80.09
2023-10-07T20:13:21.740Z,79.75
2023-10-07T20:16:24.534Z,79.78
2023-10-07T20:19:27.278Z,79.65
2023-10-07T20:22:30.055Z,79.42
2023-10-07T20:25:34.049Z,79.28
2023-10-07T20:28:37.976Z,79.40
2023-10-07T20:31:40.940Z,79.24
2023-10-07T20:34:43.878Z,79.19
2023-10-07T20:37:46.960Z,79.16
2023-10-07T20:40:58.990Z,78.97
2023-10-07T20:44:01.964Z,79.07
2023-10-07T20:47:04.966Z,79.07
2023-10-07T20:50:08.153Z,79.02
2023-10-07T20:53:11.369Z,78.95
2023-10-07T20:56:18.487Z,78.90
2023-10-07T20:59:21.243Z,78.95
2023-10-07T21:02:24.296Z,78.76
2023-10-07T21:05:28.262Z,78.91
2023-10-07T21:08:31.866Z,78.96
2023-10-07T21:11:35.445Z,78.79
2023-10-07T21:14:38.320Z,78.81
2023-10-07T21:17:41.840Z,78.72
2023-10-07T21:20:45.284Z,78.67
2023-10-07T21:23:48.193Z,78.50
2023-10-07T21:26:51.127Z,78.51
2023-10-07T21:29:53.959Z,78.65
2023-10-07T21:32:56.824Z,78.68
2023-10-07T21:36:01.647Z,78.59
2023-10-07T21:39:04.555Z,78.59
2023-10-07T21:42:07.380Z,78.70
2023-10-07T21:45:10.376Z,78.55
2023-10-07T21:48:13.315Z,78.54
2023-10-07T21:51:21.236Z,78.58
2023-10-07T21:54:24.492Z,78.73
2023-10-07T21:57:27.361Z,78.53
2023-10-07T22:00:30.147Z,78.68
2023-10-07T22:03:33.344Z,78.67
2023-10-07T22:06:36.374Z,78.63
2023-10-07T22:09:39.162Z,78.64
2023-10-07T22:12:42.013Z,78.65
2023-10-07T22:15:59.774Z,78.76
2023-10-07T22:19:04.396Z,78.74
2023-10-07T22:22:07.152Z,78.73
2023-10-07T22:25:13.923Z,78.86
2023-10-07T22:28:19.290Z,78.93
2023-10-07T22:31:22.085Z,79.01
2023-10-07T22:34:24.821Z,79.11
2023-10-07T22:37:27.586Z,79.31
2023-10-07T22:40:40.797Z,79.27
2023-10-07T22:43:43.925Z,79.44
2023-10-07T22:46:46.748Z,79.46
2023-10-07T22:49:52.488Z,79.47
2023-10-07T22:52:56.677Z,79.69
2023-10-07T22:56:15.890Z,79.63
2023-10-07T22:59:19.556Z,79.65
2023-10-07T23:02:30.837Z,79.58
2023-10-07T23:05:33.678Z,79.85
2023-10-07T23:08:38.954Z,79.99
2023-10-07T23:11:50.102Z,80.27
2023-10-07T23:14:53.112Z,80.33
2023-10-07T23:17:56.361Z,80.36
2023-10-07T23:21:05.180Z,80.62
2023-10-07T23:24:09.963Z,80.76
2023-10-07T23:27:22.992Z,80.92
2023-10-07T23:30:29.747Z,81.08
2023-10-07T23:33:38.143Z,81.13
2023-10-07T23:36:41.020Z,81.16
2023-10-07T23:39:52.900Z,81.02
2023-10-07T23:42:56.286Z,81.00
2023-10-07T23:46:02.014Z,81.01
2023-10-07T23:49:13.743Z,80.94
2023-10-07T23:52:19.561Z,80.90
2023-10-07T23:55:31.710Z,80.90
2023-10-07T23:58:36.177Z,80.99
